Hlavní strana
METAR-TAF:

METAR-TAF

Letiště :

Tunis, Tunisko

zeměpisná šířka: 36-50N, zeměpisná délka: 010-14E, výška: 3 m

Aktuální stav počasí

Zpráva byla vytvořena před 32 minutami, v 05:30 UTC
Jihojihovýchodní vítr 2 kt
Teplota 9°C
Vlhkost vzduchu 76%
Tlak 1014 hPa
Viditelnost: 8000 m
Skoro jasno ve výšce 3000 ft

METAR: DTTA 220530Z 15002KT 8000 FEW030 09/05 Q1014

Čas: 07:02 (06:02 UTC)

Předpověď počasí

Zpráva byla vytvořena před 1 hodinou a 2 minutami, v 05:00 UTC
Předpověď platná od 22 v 06 UTC do 23 v 06 UTC
Jižní vítr 4 kt
Viditelnost 10 km a více
Skoro jasno ve výšce 3000 ft
Změna
od 22 v 10 UTC do 22 v 12 UTC
Jižní vítr 11 kt
Změna
od 22 v 20 UTC do 22 v 22 UTC
Jižní vítr 16 kt

TAF: DTTA 220500Z 2206/2306 18004KT 9999 FEW030 BECMG 2210/2212 18011KT BECMG 2220/2222 19016KT

Stav a předpovědi počasí z více než 4 000 letišť (zprávy METAR a TAF).

Červené a žluté tečky na mapě představují dostupné meteorologické stanice.

Když kurzor umístíte na tečku, zobrazí se název stanice.

Pak kliknutím zobrazíte stav a předpověď počasí.

Chcete-li změnit mapu, kliknutím na zelené tlačítko se znaménkem +mapu přiblížíte, kliknutím na zelené tlačítko se znaménkem – mapu oddálíte a kliknutím na zelené šipky přejdete na sousední mapy.


METAR-TAF: